sensor_id;sensor_type;location;lat;lon;timestamp;P1;durP1;ratioP1;P2;durP2;ratioP2
55537;SDS011;41383;51.418;7.286;2023-01-10T00:00:49;13.20;;;5.75;;
55537;SDS011;41383;51.418;7.286;2023-01-10T00:03:14;16.65;;;6.85;;
55537;SDS011;41383;51.418;7.286;2023-01-10T00:05:39;14.20;;;6.05;;
55537;SDS011;41383;51.418;7.286;2023-01-10T00:08:05;15.80;;;5.88;;
55537;SDS011;41383;51.418;7.286;2023-01-10T00:10:32;14.57;;;6.20;;
55537;SDS011;41383;51.418;7.286;2023-01-10T00:12:58;14.40;;;6.30;;
55537;SDS011;41383;51.418;7.286;2023-01-10T00:18:07;11.33;;;5.47;;
55537;SDS011;41383;51.418;7.286;2023-01-10T00:20:33;11.50;;;4.95;;
55537;SDS011;41383;51.418;7.286;2023-01-10T00:22:58;17.40;;;5.35;;
55537;SDS011;41383;51.418;7.286;2023-01-10T00:25:24;15.93;;;5.10;;
55537;SDS011;41383;51.418;7.286;2023-01-10T00:27:51;14.65;;;6.05;;
55537;SDS011;41383;51.418;7.286;2023-01-10T00:30:25;10.77;;;4.82;;
55537;SDS011;41383;51.418;7.286;2023-01-10T00:32:51;17.90;;;4.38;;
55537;SDS011;41383;51.418;7.286;2023-01-10T00:35:17;15.70;;;4.88;;
55537;SDS011;41383;51.418;7.286;2023-01-10T00:37:42;11.02;;;5.13;;
55537;SDS011;41383;51.418;7.286;2023-01-10T00:40:08;13.07;;;5.32;;
55537;SDS011;41383;51.418;7.286;2023-01-10T00:42:35;19.48;;;5.35;;
55537;SDS011;41383;51.418;7.286;2023-01-10T00:45:20;9.38;;;4.00;;
55537;SDS011;41383;51.418;7.286;2023-01-10T00:47:46;11.38;;;4.25;;
55537;SDS011;41383;51.418;7.286;2023-01-10T00:50:12;10.43;;;4.13;;
55537;SDS011;41383;51.418;7.286;2023-01-10T00:52:37;11.17;;;5.13;;
55537;SDS011;41383;51.418;7.286;2023-01-10T00:55:02;12.13;;;6.50;;
55537;SDS011;41383;51.418;7.286;2023-01-10T00:57:28;12.15;;;4.80;;
55537;SDS011;41383;51.418;7.286;2023-01-10T00:59:53;20.42;;;4.47;;
55537;SDS011;41383;51.418;7.286;2023-01-10T01:02:18;12.40;;;4.27;;
55537;SDS011;41383;51.418;7.286;2023-01-10T01:04:43;15.53;;;4.57;;
55537;SDS011;41383;51.418;7.286;2023-01-10T01:07:09;10.00;;;4.27;;
55537;SDS011;41383;51.418;7.286;2023-01-10T01:09:35;14.45;;;4.18;;
55537;SDS011;41383;51.418;7.286;2023-01-10T01:12:21;17.13;;;4.38;;
55537;SDS011;41383;51.418;7.286;2023-01-10T01:14:46;7.53;;;3.70;;
55537;SDS011;41383;51.418;7.286;2023-01-10T01:17:11;8.70;;;3.50;;
55537;SDS011;41383;51.418;7.286;2023-01-10T01:19:36;14.55;;;4.15;;
55537;SDS011;41383;51.418;7.286;2023-01-10T01:22:02;12.40;;;4.00;;
55537;SDS011;41383;51.418;7.286;2023-01-10T01:24:27;22.73;;;4.33;;
55537;SDS011;41383;51.418;7.286;2023-01-10T01:26:52;9.07;;;4.28;;
55537;SDS011;41383;51.418;7.286;2023-01-10T01:29:17;14.30;;;4.90;;
55537;SDS011;41383;51.418;7.286;2023-01-10T01:31:43;10.33;;;4.93;;
55537;SDS011;41383;51.418;7.286;2023-01-10T01:34:08;8.37;;;3.63;;
55537;SDS011;41383;51.418;7.286;2023-01-10T01:36:33;9.33;;;3.20;;
55537;SDS011;41383;51.418;7.286;2023-01-10T01:38:58;8.37;;;3.53;;
55537;SDS011;41383;51.418;7.286;2023-01-10T01:41:24;7.83;;;3.57;;
55537;SDS011;41383;51.418;7.286;2023-01-10T01:44:14;11.63;;;3.78;;
55537;SDS011;41383;51.418;7.286;2023-01-10T01:49:12;12.50;;;4.10;;
55537;SDS011;41383;51.418;7.286;2023-01-10T01:51:41;9.52;;;3.78;;
55537;SDS011;41383;51.418;7.286;2023-01-10T01:54:09;20.95;;;4.72;;
55537;SDS011;41383;51.418;7.286;2023-01-10T01:56:44;11.13;;;3.63;;
55537;SDS011;41383;51.418;7.286;2023-01-10T01:59:19;13.90;;;3.45;;
55537;SDS011;41383;51.418;7.286;2023-01-10T02:01:49;12.93;;;3.47;;
55537;SDS011;41383;51.418;7.286;2023-01-10T02:04:19;11.50;;;3.47;;
55537;SDS011;41383;51.418;7.286;2023-01-10T02:06:48;8.98;;;2.70;;
55537;SDS011;41383;51.418;7.286;2023-01-10T02:12:04;10.18;;;3.85;;
55537;SDS011;41383;51.418;7.286;2023-01-10T02:14:31;9.90;;;3.13;;
55537;SDS011;41383;51.418;7.286;2023-01-10T02:16:57;6.75;;;2.28;;
55537;SDS011;41383;51.418;7.286;2023-01-10T02:19:25;6.72;;;2.45;;
55537;SDS011;41383;51.418;7.286;2023-01-10T02:24:51;5.43;;;2.38;;
55537;SDS011;41383;51.418;7.286;2023-01-10T02:27:22;13.32;;;2.53;;
55537;SDS011;41383;51.418;7.286;2023-01-10T02:29:57;10.35;;;2.10;;
55537;SDS011;41383;51.418;7.286;2023-01-10T02:32:59;8.02;;;2.67;;
55537;SDS011;41383;51.418;7.286;2023-01-10T02:35:33;7.32;;;2.47;;
55537;SDS011;41383;51.418;7.286;2023-01-10T02:38:14;7.78;;;2.72;;
55537;SDS011;41383;51.418;7.286;2023-01-10T02:40:54;7.43;;;2.63;;
55537;SDS011;41383;51.418;7.286;2023-01-10T02:43:52;8.80;;;2.97;;
55537;SDS011;41383;51.418;7.286;2023-01-10T02:46:24;6.13;;;2.15;;
55537;SDS011;41383;51.418;7.286;2023-01-10T02:48:52;10.63;;;2.10;;
55537;SDS011;41383;51.418;7.286;2023-01-10T02:51:20;13.13;;;2.90;;
55537;SDS011;41383;51.418;7.286;2023-01-10T02:53:58;8.45;;;2.28;;
55537;SDS011;41383;51.418;7.286;2023-01-10T02:59:28;7.15;;;2.83;;
55537;SDS011;41383;51.418;7.286;2023-01-10T03:04:42;7.82;;;3.20;;
55537;SDS011;41383;51.418;7.286;2023-01-10T03:07:15;25.42;;;3.20;;
55537;SDS011;41383;51.418;7.286;2023-01-10T03:09:51;6.13;;;1.88;;
55537;SDS011;41383;51.418;7.286;2023-01-10T03:12:37;7.10;;;2.67;;
55537;SDS011;41383;51.418;7.286;2023-01-10T03:15:09;8.00;;;2.22;;
55537;SDS011;41383;51.418;7.286;2023-01-10T03:17:38;7.53;;;2.15;;
55537;SDS011;41383;51.418;7.286;2023-01-10T03:20:05;10.02;;;2.33;;
55537;SDS011;41383;51.418;7.286;2023-01-10T03:22:33;6.80;;;2.13;;
55537;SDS011;41383;51.418;7.286;2023-01-10T03:25:02;7.40;;;2.67;;
55537;SDS011;41383;51.418;7.286;2023-01-10T03:27:46;9.85;;;2.67;;
55537;SDS011;41383;51.418;7.286;2023-01-10T03:30:24;8.70;;;2.70;;
55537;SDS011;41383;51.418;7.286;2023-01-10T03:32:50;10.45;;;2.88;;
55537;SDS011;41383;51.418;7.286;2023-01-10T03:35:16;10.68;;;2.53;;
55537;SDS011;41383;51.418;7.286;2023-01-10T03:38:28;7.88;;;3.38;;
55537;SDS011;41383;51.418;7.286;2023-01-10T03:46:23;8.77;;;3.70;;
55537;SDS011;41383;51.418;7.286;2023-01-10T03:48:54;14.70;;;3.72;;
55537;SDS011;41383;51.418;7.286;2023-01-10T03:51:22;7.25;;;2.65;;
55537;SDS011;41383;51.418;7.286;2023-01-10T03:53:48;13.18;;;4.28;;
55537;SDS011;41383;51.418;7.286;2023-01-10T03:56:13;10.77;;;2.58;;
55537;SDS011;41383;51.418;7.286;2023-01-10T03:58:39;19.95;;;3.67;;
55537;SDS011;41383;51.418;7.286;2023-01-10T04:01:04;11.95;;;3.85;;
55537;SDS011;41383;51.418;7.286;2023-01-10T04:03:30;7.63;;;3.00;;
55537;SDS011;41383;51.418;7.286;2023-01-10T04:05:55;10.73;;;3.30;;
55537;SDS011;41383;51.418;7.286;2023-01-10T04:08:20;9.82;;;3.22;;
55537;SDS011;41383;51.418;7.286;2023-01-10T04:10:47;12.10;;;3.35;;
55537;SDS011;41383;51.418;7.286;2023-01-10T04:13:13;21.38;;;4.55;;
55537;SDS011;41383;51.418;7.286;2023-01-10T04:15:38;12.27;;;3.87;;
55537;SDS011;41383;51.418;7.286;2023-01-10T04:18:03;10.88;;;3.70;;
55537;SDS011;41383;51.418;7.286;2023-01-10T04:20:29;11.13;;;3.70;;
55537;SDS011;41383;51.418;7.286;2023-01-10T04:22:54;13.00;;;2.20;;
55537;SDS011;41383;51.418;7.286;2023-01-10T04:25:22;8.82;;;3.05;;
55537;SDS011;41383;51.418;7.286;2023-01-10T04:27:51;8.25;;;2.78;;
55537;SDS011;41383;51.418;7.286;2023-01-10T04:30:17;8.85;;;2.42;;
55537;SDS011;41383;51.418;7.286;2023-01-10T04:32:43;10.70;;;2.75;;
55537;SDS011;41383;51.418;7.286;2023-01-10T04:35:08;8.32;;;2.92;;
55537;SDS011;41383;51.418;7.286;2023-01-10T04:37:34;11.55;;;3.05;;
55537;SDS011;41383;51.418;7.286;2023-01-10T04:39:59;7.45;;;3.55;;
55537;SDS011;41383;51.418;7.286;2023-01-10T04:42:24;9.18;;;3.00;;
55537;SDS011;41383;51.418;7.286;2023-01-10T04:44:50;21.50;;;3.47;;
55537;SDS011;41383;51.418;7.286;2023-01-10T04:47:15;5.43;;;1.87;;
55537;SDS011;41383;51.418;7.286;2023-01-10T04:49:40;5.10;;;1.90;;
55537;SDS011;41383;51.418;7.286;2023-01-10T04:52:05;13.93;;;3.47;;
55537;SDS011;41383;51.418;7.286;2023-01-10T04:54:31;14.88;;;3.22;;
55537;SDS011;41383;51.418;7.286;2023-01-10T04:56:56;8.77;;;2.37;;
55537;SDS011;41383;51.418;7.286;2023-01-10T04:59:21;10.73;;;3.03;;
55537;SDS011;41383;51.418;7.286;2023-01-10T05:01:46;9.30;;;2.77;;
55537;SDS011;41383;51.418;7.286;2023-01-10T05:04:12;8.38;;;2.60;;
55537;SDS011;41383;51.418;7.286;2023-01-10T05:06:38;9.38;;;2.45;;
55537;SDS011;41383;51.418;7.286;2023-01-10T05:09:04;7.75;;;3.00;;
55537;SDS011;41383;51.418;7.286;2023-01-10T05:11:30;10.18;;;2.90;;
55537;SDS011;41383;51.418;7.286;2023-01-10T05:13:55;12.82;;;3.90;;
55537;SDS011;41383;51.418;7.286;2023-01-10T05:16:21;16.30;;;3.80;;
55537;SDS011;41383;51.418;7.286;2023-01-10T05:18:46;8.65;;;2.67;;
55537;SDS011;41383;51.418;7.286;2023-01-10T05:21:12;10.00;;;3.50;;
55537;SDS011;41383;51.418;7.286;2023-01-10T05:23:38;6.90;;;3.13;;
55537;SDS011;41383;51.418;7.286;2023-01-10T05:26:07;9.88;;;3.50;;
55537;SDS011;41383;51.418;7.286;2023-01-10T05:28:35;11.30;;;4.53;;
55537;SDS011;41383;51.418;7.286;2023-01-10T05:31:01;8.25;;;3.58;;
55537;SDS011;41383;51.418;7.286;2023-01-10T05:33:26;13.57;;;3.88;;
55537;SDS011;41383;51.418;7.286;2023-01-10T05:35:52;9.50;;;4.00;;
55537;SDS011;41383;51.418;7.286;2023-01-10T05:38:17;18.02;;;3.30;;
55537;SDS011;41383;51.418;7.286;2023-01-10T05:40:42;14.57;;;5.07;;
55537;SDS011;41383;51.418;7.286;2023-01-10T05:43:07;7.47;;;2.83;;
55537;SDS011;41383;51.418;7.286;2023-01-10T05:45:33;12.20;;;3.10;;
55537;SDS011;41383;51.418;7.286;2023-01-10T05:47:58;17.27;;;3.28;;
55537;SDS011;41383;51.418;7.286;2023-01-10T05:50:23;7.63;;;2.80;;
55537;SDS011;41383;51.418;7.286;2023-01-10T05:52:49;10.65;;;2.78;;
55537;SDS011;41383;51.418;7.286;2023-01-10T05:55:14;9.02;;;2.35;;
55537;SDS011;41383;51.418;7.286;2023-01-10T05:57:39;6.05;;;2.42;;
55537;SDS011;41383;51.418;7.286;2023-01-10T06:00:05;16.70;;;3.30;;
55537;SDS011;41383;51.418;7.286;2023-01-10T06:02:31;10.68;;;3.95;;
55537;SDS011;41383;51.418;7.286;2023-01-10T06:04:56;11.75;;;2.88;;
55537;SDS011;41383;51.418;7.286;2023-01-10T06:07:22;13.82;;;4.22;;
55537;SDS011;41383;51.418;7.286;2023-01-10T06:09:47;13.43;;;2.85;;
55537;SDS011;41383;51.418;7.286;2023-01-10T06:12:15;8.23;;;4.20;;
55537;SDS011;41383;51.418;7.286;2023-01-10T06:14:42;6.22;;;3.22;;
55537;SDS011;41383;51.418;7.286;2023-01-10T06:17:08;9.70;;;3.20;;
55537;SDS011;41383;51.418;7.286;2023-01-10T06:19:34;12.93;;;3.20;;
55537;SDS011;41383;51.418;7.286;2023-01-10T06:21:59;24.40;;;6.35;;
55537;SDS011;41383;51.418;7.286;2023-01-10T06:24:24;8.80;;;2.78;;
55537;SDS011;41383;51.418;7.286;2023-01-10T06:26:50;15.68;;;3.47;;
55537;SDS011;41383;51.418;7.286;2023-01-10T06:29:15;12.43;;;3.30;;
55537;SDS011;41383;51.418;7.286;2023-01-10T06:31:40;11.98;;;3.70;;
55537;SDS011;41383;51.418;7.286;2023-01-10T06:34:06;8.13;;;3.63;;
55537;SDS011;41383;51.418;7.286;2023-01-10T06:36:31;37.90;;;4.10;;
55537;SDS011;41383;51.418;7.286;2023-01-10T06:38:56;11.48;;;5.10;;
55537;SDS011;41383;51.418;7.286;2023-01-10T06:41:21;14.32;;;4.80;;
55537;SDS011;41383;51.418;7.286;2023-01-10T06:43:48;10.83;;;2.93;;
55537;SDS011;41383;51.418;7.286;2023-01-10T06:46:14;11.68;;;3.78;;
55537;SDS011;41383;51.418;7.286;2023-01-10T06:48:42;18.13;;;5.82;;
55537;SDS011;41383;51.418;7.286;2023-01-10T06:51:09;14.65;;;5.45;;
55537;SDS011;41383;51.418;7.286;2023-01-10T06:53:35;12.27;;;3.08;;
55537;SDS011;41383;51.418;7.286;2023-01-10T06:56:00;17.90;;;4.28;;
55537;SDS011;41383;51.418;7.286;2023-01-10T06:58:26;18.13;;;3.58;;
55537;SDS011;41383;51.418;7.286;2023-01-10T07:00:52;10.73;;;3.70;;
55537;SDS011;41383;51.418;7.286;2023-01-10T07:03:17;10.68;;;3.63;;
55537;SDS011;41383;51.418;7.286;2023-01-10T07:05:42;16.80;;;4.35;;
55537;SDS011;41383;51.418;7.286;2023-01-10T07:08:08;17.42;;;4.32;;
55537;SDS011;41383;51.418;7.286;2023-01-10T07:10:33;10.48;;;3.92;;
55537;SDS011;41383;51.418;7.286;2023-01-10T07:12:59;11.07;;;4.25;;
55537;SDS011;41383;51.418;7.286;2023-01-10T07:15:24;23.00;;;4.63;;
55537;SDS011;41383;51.418;7.286;2023-01-10T07:17:50;19.00;;;7.25;;
55537;SDS011;41383;51.418;7.286;2023-01-10T07:20:16;20.47;;;6.73;;
55537;SDS011;41383;51.418;7.286;2023-01-10T07:22:41;15.70;;;3.80;;
55537;SDS011;41383;51.418;7.286;2023-01-10T07:25:06;12.68;;;5.20;;
55537;SDS011;41383;51.418;7.286;2023-01-10T07:27:32;13.98;;;5.18;;
55537;SDS011;41383;51.418;7.286;2023-01-10T07:29:58;15.18;;;6.18;;
55537;SDS011;41383;51.418;7.286;2023-01-10T07:32:24;15.70;;;4.72;;
55537;SDS011;41383;51.418;7.286;2023-01-10T07:34:49;12.88;;;4.03;;
55537;SDS011;41383;51.418;7.286;2023-01-10T07:37:15;16.05;;;4.18;;
55537;SDS011;41383;51.418;7.286;2023-01-10T07:39:40;12.02;;;4.15;;
55537;SDS011;41383;51.418;7.286;2023-01-10T07:42:06;31.20;;;4.93;;
55537;SDS011;41383;51.418;7.286;2023-01-10T07:44:33;13.35;;;4.05;;
55537;SDS011;41383;51.418;7.286;2023-01-10T07:46:58;15.40;;;3.63;;
55537;SDS011;41383;51.418;7.286;2023-01-10T07:49:24;11.13;;;4.72;;
55537;SDS011;41383;51.418;7.286;2023-01-10T07:51:49;12.47;;;4.37;;
55537;SDS011;41383;51.418;7.286;2023-01-10T07:54:14;12.67;;;4.73;;
55537;SDS011;41383;51.418;7.286;2023-01-10T07:56:39;15.10;;;4.80;;
55537;SDS011;41383;51.418;7.286;2023-01-10T07:59:05;20.13;;;5.97;;
55537;SDS011;41383;51.418;7.286;2023-01-10T08:01:30;21.08;;;5.38;;
55537;SDS011;41383;51.418;7.286;2023-01-10T08:03:56;16.50;;;7.77;;
55537;SDS011;41383;51.418;7.286;2023-01-10T08:06:22;13.38;;;3.88;;
55537;SDS011;41383;51.418;7.286;2023-01-10T08:08:47;21.70;;;5.97;;
55537;SDS011;41383;51.418;7.286;2023-01-10T08:11:12;15.27;;;6.70;;
55537;SDS011;41383;51.418;7.286;2023-01-10T08:13:38;19.30;;;5.10;;
55537;SDS011;41383;51.418;7.286;2023-01-10T08:16:04;13.53;;;5.27;;
55537;SDS011;41383;51.418;7.286;2023-01-10T08:18:30;20.27;;;6.88;;
55537;SDS011;41383;51.418;7.286;2023-01-10T08:20:55;16.35;;;5.18;;
55537;SDS011;41383;51.418;7.286;2023-01-10T08:23:21;18.23;;;4.38;;
55537;SDS011;41383;51.418;7.286;2023-01-10T08:25:47;16.45;;;7.78;;
55537;SDS011;41383;51.418;7.286;2023-01-10T08:28:13;25.67;;;5.75;;
55537;SDS011;41383;51.418;7.286;2023-01-10T08:30:38;28.08;;;6.25;;
55537;SDS011;41383;51.418;7.286;2023-01-10T08:33:05;12.20;;;5.80;;
55537;SDS011;41383;51.418;7.286;2023-01-10T08:35:35;17.20;;;5.57;;
55537;SDS011;41383;51.418;7.286;2023-01-10T08:38:04;26.57;;;6.20;;
55537;SDS011;41383;51.418;7.286;2023-01-10T08:40:30;14.65;;;5.10;;
55537;SDS011;41383;51.418;7.286;2023-01-10T08:43:03;21.98;;;5.57;;
55537;SDS011;41383;51.418;7.286;2023-01-10T08:45:32;18.92;;;6.28;;
55537;SDS011;41383;51.418;7.286;2023-01-10T08:47:58;10.88;;;5.28;;
55537;SDS011;41383;51.418;7.286;2023-01-10T08:50:23;17.75;;;6.22;;
55537;SDS011;41383;51.418;7.286;2023-01-10T08:52:49;15.23;;;5.38;;
55537;SDS011;41383;51.418;7.286;2023-01-10T08:55:15;20.35;;;4.82;;
55537;SDS011;41383;51.418;7.286;2023-01-10T08:57:41;23.17;;;6.32;;
55537;SDS011;41383;51.418;7.286;2023-01-10T09:00:06;21.75;;;5.15;;
55537;SDS011;41383;51.418;7.286;2023-01-10T09:02:34;14.95;;;7.40;;
55537;SDS011;41383;51.418;7.286;2023-01-10T09:04:59;15.65;;;6.03;;
55537;SDS011;41383;51.418;7.286;2023-01-10T09:07:24;17.90;;;6.80;;
55537;SDS011;41383;51.418;7.286;2023-01-10T09:09:49;10.75;;;4.63;;
55537;SDS011;41383;51.418;7.286;2023-01-10T09:12:15;20.53;;;6.47;;
55537;SDS011;41383;51.418;7.286;2023-01-10T09:14:58;26.67;;;5.97;;
55537;SDS011;41383;51.418;7.286;2023-01-10T09:17:24;15.33;;;5.67;;
55537;SDS011;41383;51.418;7.286;2023-01-10T09:19:49;12.98;;;5.18;;
55537;SDS011;41383;51.418;7.286;2023-01-10T09:22:14;19.00;;;5.78;;
55537;SDS011;41383;51.418;7.286;2023-01-10T09:24:40;17.27;;;5.00;;
55537;SDS011;41383;51.418;7.286;2023-01-10T09:27:07;9.18;;;4.05;;
55537;SDS011;41383;51.418;7.286;2023-01-10T09:29:33;18.48;;;6.15;;
55537;SDS011;41383;51.418;7.286;2023-01-10T09:31:58;30.67;;;4.80;;
55537;SDS011;41383;51.418;7.286;2023-01-10T09:34:24;14.15;;;4.90;;
55537;SDS011;41383;51.418;7.286;2023-01-10T09:36:49;12.93;;;3.90;;
55537;SDS011;41383;51.418;7.286;2023-01-10T09:39:14;16.95;;;5.22;;
55537;SDS011;41383;51.418;7.286;2023-01-10T09:41:49;25.43;;;7.10;;
55537;SDS011;41383;51.418;7.286;2023-01-10T09:44:36;18.98;;;6.97;;
55537;SDS011;41383;51.418;7.286;2023-01-10T09:47:16;20.17;;;5.57;;
55537;SDS011;41383;51.418;7.286;2023-01-10T09:50:04;14.40;;;5.40;;
55537;SDS011;41383;51.418;7.286;2023-01-10T09:52:43;18.98;;;5.25;;
55537;SDS011;41383;51.418;7.286;2023-01-10T09:55:23;15.55;;;5.00;;
55537;SDS011;41383;51.418;7.286;2023-01-10T09:57:52;24.70;;;6.28;;
55537;SDS011;41383;51.418;7.286;2023-01-10T10:00:26;15.07;;;4.32;;
55537;SDS011;41383;51.418;7.286;2023-01-10T10:02:59;17.52;;;4.68;;
55537;SDS011;41383;51.418;7.286;2023-01-10T10:05:28;23.40;;;5.68;;
55537;SDS011;41383;51.418;7.286;2023-01-10T10:07:54;16.25;;;6.00;;
55537;SDS011;41383;51.418;7.286;2023-01-10T10:10:26;21.70;;;5.38;;
55537;SDS011;41383;51.418;7.286;2023-01-10T10:15:53;16.02;;;5.32;;
55537;SDS011;41383;51.418;7.286;2023-01-10T10:18:43;16.15;;;6.35;;
55537;SDS011;41383;51.418;7.286;2023-01-10T10:21:22;14.20;;;4.97;;
55537;SDS011;41383;51.418;7.286;2023-01-10T10:24:17;18.92;;;5.40;;
55537;SDS011;41383;51.418;7.286;2023-01-10T10:26:58;16.08;;;5.20;;
55537;SDS011;41383;51.418;7.286;2023-01-10T10:34:44;14.48;;;3.25;;
55537;SDS011;41383;51.418;7.286;2023-01-10T10:37:25;18.90;;;5.57;;
55537;SDS011;41383;51.418;7.286;2023-01-10T10:42:52;14.60;;;4.32;;
55537;SDS011;41383;51.418;7.286;2023-01-10T10:45:25;16.92;;;3.47;;
55537;SDS011;41383;51.418;7.286;2023-01-10T10:50:53;10.77;;;3.63;;
55537;SDS011;41383;51.418;7.286;2023-01-10T10:53:23;12.77;;;4.75;;
55537;SDS011;41383;51.418;7.286;2023-01-10T10:55:49;15.93;;;4.65;;
55537;SDS011;41383;51.418;7.286;2023-01-10T10:58:14;15.73;;;4.32;;
55537;SDS011;41383;51.418;7.286;2023-01-10T11:00:40;15.00;;;5.18;;
55537;SDS011;41383;51.418;7.286;2023-01-10T11:05:49;14.20;;;4.82;;
55537;SDS011;41383;51.418;7.286;2023-01-10T11:08:15;12.40;;;5.32;;
55537;SDS011;41383;51.418;7.286;2023-01-10T11:10:46;12.23;;;4.78;;
55537;SDS011;41383;51.418;7.286;2023-01-10T11:15:58;13.83;;;4.93;;
55537;SDS011;41383;51.418;7.286;2023-01-10T11:18:26;11.57;;;4.38;;
55537;SDS011;41383;51.418;7.286;2023-01-10T11:26:04;22.17;;;5.78;;
55537;SDS011;41383;51.418;7.286;2023-01-10T11:28:32;11.05;;;3.97;;
55537;SDS011;41383;51.418;7.286;2023-01-10T11:30:58;12.57;;;4.50;;
55537;SDS011;41383;51.418;7.286;2023-01-10T11:33:32;13.88;;;4.10;;
55537;SDS011;41383;51.418;7.286;2023-01-10T11:36:04;11.55;;;3.65;;
55537;SDS011;41383;51.418;7.286;2023-01-10T11:38:36;25.83;;;6.50;;
55537;SDS011;41383;51.418;7.286;2023-01-10T11:41:03;11.98;;;4.07;;
55537;SDS011;41383;51.418;7.286;2023-01-10T11:43:32;18.10;;;4.20;;
55537;SDS011;41383;51.418;7.286;2023-01-10T11:46:11;14.63;;;4.70;;
55537;SDS011;41383;51.418;7.286;2023-01-10T11:48:43;13.65;;;4.22;;
55537;SDS011;41383;51.418;7.286;2023-01-10T11:51:28;11.32;;;3.45;;
55537;SDS011;41383;51.418;7.286;2023-01-10T11:56:35;11.45;;;4.55;;
55537;SDS011;41383;51.418;7.286;2023-01-10T11:59:11;16.25;;;4.10;;
55537;SDS011;41383;51.418;7.286;2023-01-10T12:01:42;20.73;;;6.13;;
55537;SDS011;41383;51.418;7.286;2023-01-10T12:04:15;13.77;;;3.30;;
55537;SDS011;41383;51.418;7.286;2023-01-10T12:06:45;22.75;;;4.30;;
55537;SDS011;41383;51.418;7.286;2023-01-10T12:12:51;17.25;;;4.72;;
55537;SDS011;41383;51.418;7.286;2023-01-10T12:14:58;19.50;;;3.88;;
55537;SDS011;41383;51.418;7.286;2023-01-10T12:17:44;11.00;;;4.10;;
55537;SDS011;41383;51.418;7.286;2023-01-10T12:20:11;11.25;;;3.25;;
55537;SDS011;41383;51.418;7.286;2023-01-10T12:22:39;10.50;;;3.05;;
55537;SDS011;41383;51.418;7.286;2023-01-10T12:27:45;15.38;;;5.18;;
55537;SDS011;41383;51.418;7.286;2023-01-10T12:30:25;13.20;;;3.05;;
55537;SDS011;41383;51.418;7.286;2023-01-10T12:32:56;18.05;;;4.63;;
55537;SDS011;41383;51.418;7.286;2023-01-10T12:35:32;14.20;;;3.72;;
55537;SDS011;41383;51.418;7.286;2023-01-10T12:38:18;7.97;;;2.17;;
55537;SDS011;41383;51.418;7.286;2023-01-10T12:41:03;25.08;;;4.43;;
55537;SDS011;41383;51.418;7.286;2023-01-10T12:43:35;17.77;;;3.42;;
55537;SDS011;41383;51.418;7.286;2023-01-10T12:46:39;8.65;;;3.05;;
55537;SDS011;41383;51.418;7.286;2023-01-10T12:49:16;10.48;;;3.17;;
55537;SDS011;41383;51.418;7.286;2023-01-10T12:51:48;12.25;;;3.10;;
55537;SDS011;41383;51.418;7.286;2023-01-10T12:54:17;18.60;;;4.68;;
55537;SDS011;41383;51.418;7.286;2023-01-10T12:56:46;8.48;;;2.50;;
55537;SDS011;41383;51.418;7.286;2023-01-10T12:59:19;20.52;;;4.82;;
55537;SDS011;41383;51.418;7.286;2023-01-10T13:01:53;24.80;;;4.40;;
55537;SDS011;41383;51.418;7.286;2023-01-10T13:04:21;7.38;;;2.25;;
55537;SDS011;41383;51.418;7.286;2023-01-10T13:06:49;13.02;;;2.90;;
55537;SDS011;41383;51.418;7.286;2023-01-10T13:09:26;18.10;;;5.10;;
55537;SDS011;41383;51.418;7.286;2023-01-10T13:12:00;8.85;;;3.97;;
55537;SDS011;41383;51.418;7.286;2023-01-10T13:14:36;14.43;;;3.75;;
55537;SDS011;41383;51.418;7.286;2023-01-10T13:22:45;11.50;;;3.25;;
55537;SDS011;41383;51.418;7.286;2023-01-10T13:28:05;14.30;;;3.50;;
55537;SDS011;41383;51.418;7.286;2023-01-10T13:30:40;18.63;;;3.90;;
55537;SDS011;41383;51.418;7.286;2023-01-10T13:33:07;8.20;;;2.60;;
55537;SDS011;41383;51.418;7.286;2023-01-10T13:35:44;17.42;;;3.67;;
55537;SDS011;41383;51.418;7.286;2023-01-10T13:38:31;9.52;;;3.30;;
55537;SDS011;41383;51.418;7.286;2023-01-10T13:41:03;7.05;;;3.05;;
55537;SDS011;41383;51.418;7.286;2023-01-10T13:48:41;13.15;;;3.80;;
55537;SDS011;41383;51.418;7.286;2023-01-10T13:51:27;13.23;;;3.47;;
55537;SDS011;41383;51.418;7.286;2023-01-10T13:53:58;8.00;;;2.90;;
55537;SDS011;41383;51.418;7.286;2023-01-10T13:56:29;9.23;;;2.78;;
55537;SDS011;41383;51.418;7.286;2023-01-10T14:01:44;6.22;;;1.63;;
55537;SDS011;41383;51.418;7.286;2023-01-10T14:04:35;14.98;;;4.45;;
55537;SDS011;41383;51.418;7.286;2023-01-10T14:07:04;27.95;;;6.00;;
55537;SDS011;41383;51.418;7.286;2023-01-10T14:09:38;11.15;;;3.22;;
55537;SDS011;41383;51.418;7.286;2023-01-10T14:12:15;11.88;;;2.58;;
55537;SDS011;41383;51.418;7.286;2023-01-10T14:14:43;9.70;;;3.50;;
55537;SDS011;41383;51.418;7.286;2023-01-10T14:17:29;12.68;;;3.53;;
55537;SDS011;41383;51.418;7.286;2023-01-10T14:22:32;8.27;;;2.63;;
55537;SDS011;41383;51.418;7.286;2023-01-10T14:24:59;17.77;;;3.25;;
55537;SDS011;41383;51.418;7.286;2023-01-10T14:27:36;8.40;;;2.85;;
55537;SDS011;41383;51.418;7.286;2023-01-10T14:30:13;9.32;;;2.53;;
55537;SDS011;41383;51.418;7.286;2023-01-10T14:32:42;4.85;;;2.00;;
55537;SDS011;41383;51.418;7.286;2023-01-10T14:35:16;9.60;;;2.42;;
55537;SDS011;41383;51.418;7.286;2023-01-10T14:37:46;9.25;;;2.53;;
55537;SDS011;41383;51.418;7.286;2023-01-10T14:43:05;10.70;;;2.42;;
55537;SDS011;41383;51.418;7.286;2023-01-10T14:45:34;11.80;;;2.55;;
55537;SDS011;41383;51.418;7.286;2023-01-10T14:50:47;12.38;;;3.20;;
55537;SDS011;41383;51.418;7.286;2023-01-10T14:53:25;11.53;;;1.97;;
55537;SDS011;41383;51.418;7.286;2023-01-10T14:55:53;11.75;;;3.65;;
55537;SDS011;41383;51.418;7.286;2023-01-10T14:58:18;7.80;;;1.98;;
55537;SDS011;41383;51.418;7.286;2023-01-10T15:00:44;8.73;;;2.42;;
55537;SDS011;41383;51.418;7.286;2023-01-10T15:03:15;13.45;;;1.95;;
55537;SDS011;41383;51.418;7.286;2023-01-10T15:05:44;7.72;;;2.92;;
55537;SDS011;41383;51.418;7.286;2023-01-10T15:08:27;6.72;;;2.58;;
55537;SDS011;41383;51.418;7.286;2023-01-10T15:11:04;8.25;;;4.03;;
55537;SDS011;41383;51.418;7.286;2023-01-10T15:13:34;10.07;;;2.83;;
55537;SDS011;41383;51.418;7.286;2023-01-10T15:16:03;15.35;;;5.28;;
55537;SDS011;41383;51.418;7.286;2023-01-10T15:18:32;7.28;;;3.03;;
55537;SDS011;41383;51.418;7.286;2023-01-10T15:21:03;7.07;;;2.00;;
55537;SDS011;41383;51.418;7.286;2023-01-10T15:23:33;6.72;;;1.98;;
55537;SDS011;41383;51.418;7.286;2023-01-10T15:26:05;11.52;;;2.50;;
55537;SDS011;41383;51.418;7.286;2023-01-10T15:28:34;9.40;;;2.70;;
55537;SDS011;41383;51.418;7.286;2023-01-10T15:31:00;7.85;;;2.80;;
55537;SDS011;41383;51.418;7.286;2023-01-10T15:33:26;7.45;;;2.10;;
55537;SDS011;41383;51.418;7.286;2023-01-10T15:35:54;8.38;;;2.85;;
55537;SDS011;41383;51.418;7.286;2023-01-10T15:38:22;11.75;;;3.35;;
55537;SDS011;41383;51.418;7.286;2023-01-10T15:40:55;6.85;;;2.20;;
55537;SDS011;41383;51.418;7.286;2023-01-10T15:43:24;10.23;;;3.03;;
55537;SDS011;41383;51.418;7.286;2023-01-10T15:45:54;6.75;;;3.15;;
55537;SDS011;41383;51.418;7.286;2023-01-10T15:48:28;11.27;;;5.07;;
55537;SDS011;41383;51.418;7.286;2023-01-10T15:50:56;6.03;;;1.88;;
55537;SDS011;41383;51.418;7.286;2023-01-10T15:56:21;7.85;;;2.15;;
55537;SDS011;41383;51.418;7.286;2023-01-10T15:58:50;9.77;;;2.42;;
55537;SDS011;41383;51.418;7.286;2023-01-10T16:01:16;13.48;;;2.90;;
55537;SDS011;41383;51.418;7.286;2023-01-10T16:03:46;11.10;;;4.05;;
55537;SDS011;41383;51.418;7.286;2023-01-10T16:06:34;7.27;;;2.60;;
55537;SDS011;41383;51.418;7.286;2023-01-10T16:09:02;27.63;;;3.88;;
55537;SDS011;41383;51.418;7.286;2023-01-10T16:14:23;12.95;;;2.22;;
55537;SDS011;41383;51.418;7.286;2023-01-10T16:16:48;11.77;;;3.90;;